AFR65JZ LFPG-EPWA
Flight info
| Callsign | AFR65JZ |
|---|---|
| Flight time | 1h 44m |
| Altitude | 37000 |
| Route | LFPG/09R RANUX DCT VALEK DCT LIPNI DCT LIMGO DCT MASEK DCT ROBEL DCT POZUM DCT OLUMA DCT OBOKU DCT DOSIX DCT BIMPA |
| Aircraft | A320/M-SDE3FGHIRWY/LB1 |
Departure
| Time | 2026-05-08 20:53 |
|---|---|
| Airport | Charles de Gaulle International Airport (LFPG) |
Arrival
| Time | 2026-05-08 22:38 |
|---|---|
| Airport | Warsaw Chopin Airport (EPWA) |
| Time | Latitude | Longitude | Altitude | Speed | Heading |
|---|---|---|---|---|---|
| 2026-05-08 20:10 | 49.01298 | 2.53816 | 362 ft | 0 kts | 107° |
| 2026-05-08 20:35 | 49.01299 | 2.53813 | 354 ft | 3 kts | 107° |
| 2026-05-08 20:36 | 49.01305 | 2.53780 | 364 ft | 3 kts | 105° |
| 2026-05-08 20:36 | 49.01311 | 2.53747 | 364 ft | 3 kts | 104° |
| 2026-05-08 20:36 | 49.01317 | 2.53713 | 361 ft | 3 kts | 101° |
| 2026-05-08 20:36 | 49.01320 | 2.53679 | 361 ft | 3 kts | 89° |
| 2026-05-08 20:37 | 49.01317 | 2.53650 | 360 ft | 3 kts | 45° |
| 2026-05-08 20:37 | 49.01311 | 2.53642 | 363 ft | 0 kts | 341° |
| 2026-05-08 20:40 | 49.01330 | 2.53633 | 360 ft | 5 kts | 342° |
| 2026-05-08 20:41 | 49.01368 | 2.53619 | 356 ft | 7 kts | 347° |
| 2026-05-08 20:41 | 49.01431 | 2.53608 | 354 ft | 10 kts | 359° |
| 2026-05-08 20:41 | 49.01501 | 2.53613 | 354 ft | 11 kts | 2° |
| 2026-05-08 20:41 | 49.01578 | 2.53604 | 354 ft | 12 kts | 355° |
| 2026-05-08 20:42 | 49.01663 | 2.53593 | 360 ft | 10 kts | 355° |
| 2026-05-08 20:42 | 49.01682 | 2.53591 | 357 ft | 0 kts | 355° |
| 2026-05-08 20:43 | 49.01684 | 2.53590 | 356 ft | 1 kts | 355° |
| 2026-05-08 20:43 | 49.01709 | 2.53587 | 354 ft | 6 kts | 355° |
| 2026-05-08 20:43 | 49.01761 | 2.53566 | 361 ft | 10 kts | 322° |
| 2026-05-08 20:43 | 49.01773 | 2.53456 | 359 ft | 10 kts | 265° |
| 2026-05-08 20:44 | 49.01767 | 2.53335 | 356 ft | 14 kts | 265° |
| 2026-05-08 20:44 | 49.01757 | 2.53161 | 362 ft | 18 kts | 265° |
| 2026-05-08 20:44 | 49.01746 | 2.52944 | 356 ft | 23 kts | 266° |
| 2026-05-08 20:44 | 49.01738 | 2.52749 | 356 ft | 3 kts | 265° |
| 2026-05-08 20:45 | 49.01735 | 2.52707 | 356 ft | 7 kts | 263° |
| 2026-05-08 20:45 | 49.01731 | 2.52643 | 356 ft | 11 kts | 264° |
| 2026-05-08 20:45 | 49.01722 | 2.52505 | 356 ft | 9 kts | 265° |
| 2026-05-08 20:45 | 49.01719 | 2.52435 | 356 ft | 0 kts | 266° |
| 2026-05-08 20:46 | 49.01717 | 2.52402 | 362 ft | 6 kts | 263° |
| 2026-05-08 20:47 | 49.01711 | 2.52315 | 356 ft | 11 kts | 264° |
| 2026-05-08 20:47 | 49.01706 | 2.52210 | 356 ft | 8 kts | 266° |
| 2026-05-08 20:47 | 49.01728 | 2.52149 | 362 ft | 6 kts | 327° |
| 2026-05-08 20:47 | 49.01769 | 2.52137 | 354 ft | 8 kts | 354° |
| 2026-05-08 20:48 | 49.01838 | 2.52129 | 354 ft | 11 kts | 356° |
| 2026-05-08 20:48 | 49.01915 | 2.52120 | 354 ft | 12 kts | 355° |
| 2026-05-08 20:48 | 49.01949 | 2.52116 | 358 ft | 0 kts | 354° |
| 2026-05-08 20:50 | 49.01957 | 2.52115 | 357 ft | 4 kts | 354° |
| 2026-05-08 20:51 | 49.02002 | 2.52108 | 354 ft | 9 kts | 354° |
| 2026-05-08 20:51 | 49.02050 | 2.52105 | 354 ft | 11 kts | 1° |
| 2026-05-08 20:51 | 49.02110 | 2.52185 | 355 ft | 11 kts | 74° |
| 2026-05-08 20:51 | 49.02112 | 2.52208 | 353 ft | 0 kts | 83° |
| 2026-05-08 20:52 | 49.02117 | 2.52283 | 360 ft | 32 kts | 85° |
| 2026-05-08 20:52 | 49.02156 | 2.52998 | 360 ft | 101 kts | 85° |
| 2026-05-08 20:53 | 49.02235 | 2.54364 | 368 ft | 153 kts | 85° |
| 2026-05-08 20:53 | 49.02300 | 2.56028 | 850 ft | 158 kts | 85° |
| 2026-05-08 20:53 | 49.02368 | 2.57715 | 1534 ft | 160 kts | 85° |
| 2026-05-08 20:53 | 49.02456 | 2.59408 | 2220 ft | 160 kts | 85° |
| 2026-05-08 20:54 | 49.02553 | 2.61104 | 2809 ft | 164 kts | 85° |
| 2026-05-08 20:54 | 49.02657 | 2.62942 | 3096 ft | 186 kts | 85° |
| 2026-05-08 20:54 | 49.02773 | 2.65029 | 3389 ft | 209 kts | 85° |
| 2026-05-08 20:54 | 49.02901 | 2.67359 | 3679 ft | 233 kts | 85° |
| 2026-05-08 20:55 | 49.03042 | 2.69936 | 4122 ft | 254 kts | 85° |
| 2026-05-08 20:55 | 49.03191 | 2.72667 | 4879 ft | 262 kts | 86° |
| 2026-05-08 20:55 | 49.03334 | 2.75464 | 5688 ft | 268 kts | 86° |
| 2026-05-08 20:55 | 49.03474 | 2.78337 | 6485 ft | 275 kts | 86° |
| 2026-05-08 20:56 | 49.03613 | 2.81269 | 7251 ft | 280 kts | 86° |
| 2026-05-08 20:56 | 49.03753 | 2.84258 | 8040 ft | 285 kts | 86° |
| 2026-05-08 20:56 | 49.03894 | 2.87301 | 8840 ft | 290 kts | 86° |
| 2026-05-08 20:56 | 49.04039 | 2.90396 | 9617 ft | 295 kts | 86° |
| 2026-05-08 20:57 | 49.04190 | 2.93548 | 10328 ft | 303 kts | 86° |
| 2026-05-08 20:57 | 49.04397 | 2.96861 | 10588 ft | 327 kts | 84° |
| 2026-05-08 20:57 | 49.04662 | 3.00425 | 10782 ft | 350 kts | 84° |
| 2026-05-08 20:57 | 49.04956 | 3.04184 | 11218 ft | 362 kts | 84° |
| 2026-05-08 20:58 | 49.05256 | 3.08027 | 11885 ft | 367 kts | 84° |
| 2026-05-08 20:58 | 49.05555 | 3.11912 | 12566 ft | 372 kts | 84° |
| 2026-05-08 20:58 | 49.05851 | 3.15855 | 13260 ft | 376 kts | 84° |
| 2026-05-08 20:58 | 49.06140 | 3.19828 | 13960 ft | 379 kts | 84° |
| 2026-05-08 20:59 | 49.06426 | 3.23828 | 14584 ft | 382 kts | 84° |
| 2026-05-08 20:59 | 49.06712 | 3.27874 | 15229 ft | 384 kts | 84° |
| 2026-05-08 20:59 | 49.06999 | 3.31940 | 15857 ft | 387 kts | 84° |
| 2026-05-08 20:59 | 49.07286 | 3.36033 | 16488 ft | 389 kts | 84° |
| 2026-05-08 21:00 | 49.07574 | 3.40149 | 17107 ft | 392 kts | 84° |
| 2026-05-08 21:00 | 49.07865 | 3.44302 | 17714 ft | 395 kts | 84° |
| 2026-05-08 21:00 | 49.08151 | 3.48458 | 18333 ft | 398 kts | 84° |
| 2026-05-08 21:00 | 49.08444 | 3.52702 | 18859 ft | 401 kts | 84° |
| 2026-05-08 21:01 | 49.08737 | 3.56939 | 19371 ft | 404 kts | 83° |
| 2026-05-08 21:01 | 49.09032 | 3.61222 | 19885 ft | 408 kts | 83° |
| 2026-05-08 21:01 | 49.09329 | 3.65545 | 20384 ft | 411 kts | 83° |
| 2026-05-08 21:01 | 49.09625 | 3.69901 | 20874 ft | 415 kts | 82° |
| 2026-05-08 21:02 | 49.09921 | 3.74295 | 21337 ft | 418 kts | 82° |
| 2026-05-08 21:02 | 49.10214 | 3.78730 | 21805 ft | 422 kts | 82° |
| 2026-05-08 21:02 | 49.10507 | 3.83185 | 22257 ft | 425 kts | 82° |
| 2026-05-08 21:02 | 49.10806 | 3.87698 | 22705 ft | 428 kts | 81° |
| 2026-05-08 21:03 | 49.11105 | 3.92227 | 23133 ft | 431 kts | 81° |
| 2026-05-08 21:03 | 49.11403 | 3.96807 | 23558 ft | 435 kts | 81° |
| 2026-05-08 21:03 | 49.11700 | 4.01413 | 23913 ft | 438 kts | 81° |
| 2026-05-08 21:03 | 49.11998 | 4.06050 | 24252 ft | 440 kts | 81° |
| 2026-05-08 21:04 | 49.12297 | 4.10728 | 24591 ft | 443 kts | 81° |
| 2026-05-08 21:04 | 49.12594 | 4.15411 | 24926 ft | 446 kts | 81° |
| 2026-05-08 21:04 | 49.12891 | 4.20142 | 25250 ft | 448 kts | 81° |
| 2026-05-08 21:04 | 49.13185 | 4.24894 | 25575 ft | 451 kts | 81° |
| 2026-05-08 21:05 | 49.13480 | 4.29666 | 25888 ft | 453 kts | 81° |
| 2026-05-08 21:05 | 49.13881 | 4.34440 | 26201 ft | 453 kts | 75° |
| 2026-05-08 21:05 | 49.14707 | 4.39054 | 26504 ft | 451 kts | 66° |
| 2026-05-08 21:05 | 49.15881 | 4.43491 | 26828 ft | 451 kts | 63° |
| 2026-05-08 21:06 | 49.17091 | 4.47927 | 27152 ft | 453 kts | 63° |
| 2026-05-08 21:06 | 49.18302 | 4.52375 | 27429 ft | 455 kts | 63° |
| 2026-05-08 21:06 | 49.19515 | 4.56853 | 27710 ft | 457 kts | 63° |
| 2026-05-08 21:06 | 49.20731 | 4.61352 | 27985 ft | 459 kts | 63° |
| 2026-05-08 21:07 | 49.21950 | 4.65876 | 28314 ft | 460 kts | 63° |
| 2026-05-08 21:07 | 49.23164 | 4.70393 | 28656 ft | 460 kts | 63° |
| 2026-05-08 21:07 | 49.24382 | 4.74927 | 28896 ft | 461 kts | 63° |
| 2026-05-08 21:07 | 49.25600 | 4.79470 | 29151 ft | 463 kts | 63° |
| 2026-05-08 21:08 | 49.26824 | 4.84036 | 29430 ft | 463 kts | 63° |
| 2026-05-08 21:08 | 49.28026 | 4.88541 | 29743 ft | 463 kts | 63° |
| 2026-05-08 21:08 | 49.29251 | 4.93147 | 30166 ft | 461 kts | 62° |
| 2026-05-08 21:08 | 49.30454 | 4.97691 | 30465 ft | 460 kts | 62° |
| 2026-05-08 21:09 | 49.31654 | 5.02232 | 30748 ft | 459 kts | 62° |
| 2026-05-08 21:09 | 49.32853 | 5.06765 | 31024 ft | 459 kts | 62° |
| 2026-05-08 21:09 | 49.34056 | 5.11308 | 31284 ft | 459 kts | 62° |
| 2026-05-08 21:09 | 49.35256 | 5.15847 | 31539 ft | 459 kts | 62° |
| 2026-05-08 21:10 | 49.36456 | 5.20384 | 31801 ft | 459 kts | 62° |
| 2026-05-08 21:10 | 49.37656 | 5.24935 | 32068 ft | 459 kts | 62° |
| 2026-05-08 21:10 | 49.38848 | 5.29472 | 32336 ft | 459 kts | 62° |
| 2026-05-08 21:10 | 49.40038 | 5.34022 | 32604 ft | 459 kts | 62° |
| 2026-05-08 21:11 | 49.41224 | 5.38569 | 32984 ft | 458 kts | 63° |
| 2026-05-08 21:11 | 49.42406 | 5.43108 | 33290 ft | 456 kts | 63° |
| 2026-05-08 21:11 | 49.43581 | 5.47635 | 33572 ft | 456 kts | 63° |
| 2026-05-08 21:11 | 49.44754 | 5.52164 | 33850 ft | 456 kts | 63° |
| 2026-05-08 21:12 | 49.45925 | 5.56686 | 34126 ft | 456 kts | 63° |
| 2026-05-08 21:12 | 49.47086 | 5.61160 | 34340 ft | 456 kts | 63° |
| 2026-05-08 21:12 | 49.48261 | 5.65690 | 34548 ft | 457 kts | 64° |
| 2026-05-08 21:12 | 49.49432 | 5.70226 | 34750 ft | 457 kts | 64° |
| 2026-05-08 21:13 | 49.50599 | 5.74779 | 34955 ft | 457 kts | 64° |
| 2026-05-08 21:13 | 49.51762 | 5.79337 | 35140 ft | 458 kts | 64° |
| 2026-05-08 21:13 | 49.52899 | 5.83923 | 35370 ft | 459 kts | 66° |
| 2026-05-08 21:13 | 49.54018 | 5.88538 | 35515 ft | 460 kts | 66° |
| 2026-05-08 21:14 | 49.55140 | 5.93155 | 35693 ft | 461 kts | 66° |
| 2026-05-08 21:14 | 49.56270 | 5.97778 | 35872 ft | 461 kts | 66° |
| 2026-05-08 21:14 | 49.57407 | 6.02408 | 36045 ft | 462 kts | 66° |
| 2026-05-08 21:14 | 49.58544 | 6.07030 | 36221 ft | 462 kts | 66° |
| 2026-05-08 21:15 | 49.59687 | 6.11669 | 36423 ft | 461 kts | 66° |
| 2026-05-08 21:15 | 49.60824 | 6.16287 | 36612 ft | 461 kts | 66° |
| 2026-05-08 21:15 | 49.61958 | 6.20907 | 36780 ft | 461 kts | 67° |
| 2026-05-08 21:15 | 49.63091 | 6.25547 | 36930 ft | 462 kts | 67° |
| 2026-05-08 21:16 | 49.64383 | 6.30058 | 37079 ft | 459 kts | 59° |
| 2026-05-08 21:16 | 49.67437 | 6.38778 | 37111 ft | 464 kts | 59° |
| 2026-05-08 21:17 | 49.70516 | 6.47544 | 37111 ft | 465 kts | 59° |
| 2026-05-08 21:17 | 49.73584 | 6.56337 | 37113 ft | 465 kts | 60° |
| 2026-05-08 21:18 | 49.76629 | 6.65147 | 37113 ft | 465 kts | 60° |
| 2026-05-08 21:18 | 49.79678 | 6.73984 | 37124 ft | 465 kts | 60° |
| 2026-05-08 21:19 | 49.82722 | 6.82817 | 37129 ft | 465 kts | 60° |
| 2026-05-08 21:19 | 49.85767 | 6.91670 | 37137 ft | 466 kts | 60° |
| 2026-05-08 21:20 | 49.88810 | 7.00561 | 37133 ft | 466 kts | 60° |
| 2026-05-08 21:20 | 49.91845 | 7.09459 | 37137 ft | 467 kts | 60° |
| 2026-05-08 21:21 | 49.94871 | 7.18374 | 37156 ft | 467 kts | 60° |
| 2026-05-08 21:21 | 49.97894 | 7.27308 | 37166 ft | 467 kts | 61° |
| 2026-05-08 21:22 | 50.00909 | 7.36247 | 37165 ft | 467 kts | 61° |
| 2026-05-08 21:22 | 50.03918 | 7.45195 | 37158 ft | 467 kts | 61° |
| 2026-05-08 21:23 | 50.06923 | 7.54160 | 37154 ft | 467 kts | 61° |
| 2026-05-08 21:23 | 50.09913 | 7.63133 | 37153 ft | 467 kts | 61° |
| 2026-05-08 21:24 | 50.12899 | 7.72127 | 37156 ft | 467 kts | 61° |
| 2026-05-08 21:24 | 50.15885 | 7.81129 | 37167 ft | 467 kts | 62° |
| 2026-05-08 21:25 | 50.18862 | 7.90143 | 37162 ft | 467 kts | 62° |
| 2026-05-08 21:25 | 50.21827 | 7.99169 | 37159 ft | 467 kts | 62° |
| 2026-05-08 21:26 | 50.24787 | 8.08215 | 37164 ft | 467 kts | 62° |
| 2026-05-08 21:26 | 50.27748 | 8.17254 | 37163 ft | 467 kts | 62° |
| 2026-05-08 21:27 | 50.30677 | 8.26252 | 37162 ft | 467 kts | 62° |
| 2026-05-08 21:27 | 50.33636 | 8.35372 | 37161 ft | 467 kts | 62° |
| 2026-05-08 21:28 | 50.36561 | 8.44399 | 37170 ft | 468 kts | 62° |
| 2026-05-08 21:28 | 50.39510 | 8.53561 | 37171 ft | 468 kts | 62° |
| 2026-05-08 21:29 | 50.42406 | 8.62615 | 37168 ft | 468 kts | 62° |
| 2026-05-08 21:29 | 50.45344 | 8.71811 | 37167 ft | 468 kts | 62° |
| 2026-05-08 21:30 | 50.48254 | 8.80939 | 37170 ft | 468 kts | 62° |
| 2026-05-08 21:30 | 50.51156 | 8.90090 | 37173 ft | 468 kts | 62° |
| 2026-05-08 21:31 | 50.54014 | 8.99150 | 37189 ft | 468 kts | 63° |
| 2026-05-08 21:31 | 50.56921 | 9.08380 | 37183 ft | 468 kts | 63° |
| 2026-05-08 21:32 | 50.59320 | 9.16008 | 37182 ft | 467 kts | 63° |
| 2026-05-08 21:32 | 50.62192 | 9.25193 | 37190 ft | 467 kts | 63° |
| 2026-05-08 21:33 | 50.65051 | 9.34371 | 37188 ft | 467 kts | 63° |
| 2026-05-08 21:33 | 50.68377 | 9.45073 | 37180 ft | 467 kts | 63° |
| 2026-05-08 21:34 | 50.70759 | 9.52786 | 37177 ft | 467 kts | 63° |
| 2026-05-08 21:34 | 50.73403 | 9.62153 | 37178 ft | 468 kts | 71° |
| 2026-05-08 21:35 | 50.75397 | 9.71946 | 37185 ft | 468 kts | 71° |
| 2026-05-08 21:35 | 50.77392 | 9.81740 | 37183 ft | 468 kts | 71° |
| 2026-05-08 21:36 | 50.79381 | 9.91542 | 37180 ft | 469 kts | 71° |
| 2026-05-08 21:36 | 50.81370 | 10.01375 | 37184 ft | 469 kts | 71° |
| 2026-05-08 21:37 | 50.83351 | 10.11218 | 37177 ft | 470 kts | 71° |
| 2026-05-08 21:37 | 50.85321 | 10.21072 | 37183 ft | 470 kts | 72° |
| 2026-05-08 21:38 | 50.87282 | 10.30943 | 37184 ft | 470 kts | 72° |
| 2026-05-08 21:38 | 50.89231 | 10.40811 | 37198 ft | 469 kts | 72° |
| 2026-05-08 21:39 | 50.91227 | 10.50658 | 37189 ft | 469 kts | 71° |
| 2026-05-08 21:39 | 50.93341 | 10.60454 | 37194 ft | 470 kts | 70° |
| 2026-05-08 21:40 | 50.95460 | 10.70255 | 37199 ft | 470 kts | 70° |
| 2026-05-08 21:40 | 50.97548 | 10.80077 | 37203 ft | 470 kts | 71° |
| 2026-05-08 21:41 | 51.00632 | 10.94841 | 37201 ft | 470 kts | 71° |
| 2026-05-08 21:41 | 51.02685 | 11.04693 | 37194 ft | 470 kts | 71° |
| 2026-05-08 21:42 | 51.04728 | 11.14503 | 37201 ft | 470 kts | 71° |
| 2026-05-08 21:42 | 51.06784 | 11.24445 | 37202 ft | 471 kts | 71° |
| 2026-05-08 21:43 | 51.08818 | 11.34341 | 37204 ft | 471 kts | 71° |
| 2026-05-08 21:43 | 51.10849 | 11.44263 | 37199 ft | 471 kts | 71° |
| 2026-05-08 21:44 | 51.12855 | 11.54111 | 37203 ft | 471 kts | 71° |
| 2026-05-08 21:44 | 51.14874 | 11.64045 | 37209 ft | 472 kts | 71° |
| 2026-05-08 21:45 | 51.16879 | 11.73998 | 37204 ft | 472 kts | 71° |
| 2026-05-08 21:45 | 51.18874 | 11.83948 | 37204 ft | 472 kts | 71° |
| 2026-05-08 21:46 | 51.20862 | 11.93916 | 37218 ft | 472 kts | 71° |
| 2026-05-08 21:46 | 51.22841 | 12.03904 | 37201 ft | 472 kts | 72° |
| 2026-05-08 21:47 | 51.24817 | 12.13913 | 37208 ft | 473 kts | 72° |
| 2026-05-08 21:47 | 51.26792 | 12.23927 | 37199 ft | 473 kts | 72° |
| 2026-05-08 21:48 | 51.28750 | 12.33967 | 37201 ft | 473 kts | 72° |
| 2026-05-08 21:48 | 51.30702 | 12.44015 | 37210 ft | 474 kts | 72° |
| 2026-05-08 21:49 | 51.32649 | 12.54064 | 37199 ft | 474 kts | 72° |
| 2026-05-08 21:49 | 51.34587 | 12.64134 | 37214 ft | 474 kts | 72° |
| 2026-05-08 21:50 | 51.36517 | 12.74206 | 37222 ft | 474 kts | 72° |
| 2026-05-08 21:50 | 51.38436 | 12.84305 | 37214 ft | 474 kts | 72° |
| 2026-05-08 21:51 | 51.40351 | 12.94406 | 37202 ft | 474 kts | 72° |
| 2026-05-08 21:51 | 51.42253 | 13.04518 | 37203 ft | 474 kts | 72° |
| 2026-05-08 21:52 | 51.44146 | 13.14632 | 37200 ft | 474 kts | 72° |
| 2026-05-08 21:52 | 51.46038 | 13.24768 | 37196 ft | 475 kts | 72° |
| 2026-05-08 21:53 | 51.47922 | 13.34924 | 37203 ft | 475 kts | 73° |
| 2026-05-08 21:53 | 51.49787 | 13.45084 | 37207 ft | 475 kts | 73° |
| 2026-05-08 21:54 | 51.51648 | 13.55266 | 37215 ft | 475 kts | 73° |
| 2026-05-08 21:54 | 51.53499 | 13.65420 | 37219 ft | 476 kts | 73° |
| 2026-05-08 21:55 | 51.55347 | 13.75629 | 37207 ft | 476 kts | 73° |
| 2026-05-08 21:56 | 51.58108 | 13.90964 | 37201 ft | 476 kts | 73° |
| 2026-05-08 21:56 | 51.59940 | 14.01209 | 37201 ft | 477 kts | 73° |
| 2026-05-08 21:57 | 51.61759 | 14.11469 | 37196 ft | 477 kts | 73° |
| 2026-05-08 21:57 | 51.63554 | 14.21657 | 37206 ft | 477 kts | 73° |
| 2026-05-08 21:58 | 51.65364 | 14.31936 | 37219 ft | 477 kts | 73° |
| 2026-05-08 21:58 | 51.67163 | 14.42226 | 37215 ft | 478 kts | 74° |
| 2026-05-08 21:59 | 51.68950 | 14.52543 | 37200 ft | 478 kts | 74° |
| 2026-05-08 21:59 | 51.70723 | 14.62870 | 37207 ft | 478 kts | 74° |
| 2026-05-08 22:00 | 51.72504 | 14.73192 | 37203 ft | 479 kts | 74° |
| 2026-05-08 22:00 | 51.74293 | 14.83538 | 37218 ft | 479 kts | 74° |
| 2026-05-08 22:01 | 51.76072 | 14.93909 | 37209 ft | 479 kts | 74° |
| 2026-05-08 22:01 | 51.77834 | 15.04281 | 37212 ft | 479 kts | 74° |
| 2026-05-08 22:02 | 51.79586 | 15.14666 | 37220 ft | 479 kts | 74° |
| 2026-05-08 22:02 | 51.81333 | 15.25056 | 37209 ft | 479 kts | 74° |
| 2026-05-08 22:03 | 51.82809 | 15.35548 | 37204 ft | 479 kts | 86° |
| 2026-05-08 22:03 | 51.83137 | 15.46249 | 37207 ft | 479 kts | 88° |
| 2026-05-08 22:04 | 51.83427 | 15.57021 | 37208 ft | 480 kts | 88° |
| 2026-05-08 22:04 | 51.83711 | 15.67797 | 37216 ft | 480 kts | 88° |
| 2026-05-08 22:05 | 51.83995 | 15.78578 | 37203 ft | 480 kts | 88° |
| 2026-05-08 22:05 | 51.84269 | 15.89362 | 37216 ft | 480 kts | 88° |
| 2026-05-08 22:06 | 51.84522 | 16.00142 | 37207 ft | 480 kts | 88° |
| 2026-05-08 22:06 | 51.84772 | 16.10928 | 37203 ft | 480 kts | 88° |
| 2026-05-08 22:07 | 51.85014 | 16.21723 | 37217 ft | 480 kts | 88° |
| 2026-05-08 22:07 | 51.85240 | 16.32528 | 37204 ft | 481 kts | 88° |
| 2026-05-08 22:08 | 51.85468 | 16.43349 | 37219 ft | 481 kts | 88° |
| 2026-05-08 22:08 | 51.85682 | 16.54166 | 37214 ft | 481 kts | 89° |
| 2026-05-08 22:09 | 51.85875 | 16.64978 | 37218 ft | 481 kts | 89° |
| 2026-05-08 22:09 | 51.86064 | 16.75795 | 37219 ft | 481 kts | 89° |
| 2026-05-08 22:10 | 51.86245 | 16.86622 | 37205 ft | 482 kts | 89° |
| 2026-05-08 22:10 | 51.86418 | 16.97460 | 37212 ft | 482 kts | 89° |
| 2026-05-08 22:11 | 51.86586 | 17.08282 | 37224 ft | 482 kts | 89° |
| 2026-05-08 22:11 | 51.86739 | 17.19124 | 37211 ft | 481 kts | 89° |
| 2026-05-08 22:12 | 51.86878 | 17.29941 | 37202 ft | 481 kts | 89° |
| 2026-05-08 22:12 | 51.87009 | 17.40773 | 37201 ft | 482 kts | 89° |
| 2026-05-08 22:13 | 51.87126 | 17.51618 | 37199 ft | 482 kts | 89° |
| 2026-05-08 22:13 | 51.87237 | 17.62456 | 37197 ft | 482 kts | 89° |
| 2026-05-08 22:14 | 51.87341 | 17.73213 | 37200 ft | 482 kts | 90° |
| 2026-05-08 22:14 | 51.87434 | 17.84158 | 37203 ft | 483 kts | 90° |
| 2026-05-08 22:15 | 51.87517 | 17.94954 | 37209 ft | 483 kts | 90° |
| 2026-05-08 22:15 | 51.87584 | 18.05829 | 37204 ft | 483 kts | 90° |
| 2026-05-08 22:16 | 51.87647 | 18.16691 | 37202 ft | 483 kts | 90° |
| 2026-05-08 22:16 | 51.87695 | 18.25794 | 37202 ft | 483 kts | 90° |
| 2026-05-08 22:17 | 51.87737 | 18.36673 | 37210 ft | 483 kts | 90° |
| 2026-05-08 22:17 | 51.87766 | 18.47541 | 37191 ft | 483 kts | 90° |
| 2026-05-08 22:18 | 51.87792 | 18.58418 | 37207 ft | 483 kts | 90° |
| 2026-05-08 22:18 | 51.87810 | 18.69289 | 37194 ft | 483 kts | 90° |
| 2026-05-08 22:19 | 51.87812 | 18.80166 | 37196 ft | 484 kts | 90° |
| 2026-05-08 22:19 | 51.87805 | 18.91052 | 37180 ft | 484 kts | 91° |
| 2026-05-08 22:19 | 51.87799 | 18.96518 | 36399 ft | 489 kts | 91° |
| 2026-05-08 22:20 | 51.87792 | 19.02070 | 35389 ft | 495 kts | 91° |
| 2026-05-08 22:20 | 51.87778 | 19.07652 | 34469 ft | 497 kts | 91° |
| 2026-05-08 22:20 | 51.87761 | 19.13251 | 33332 ft | 499 kts | 91° |
| 2026-05-08 22:20 | 51.87741 | 19.18853 | 32251 ft | 498 kts | 91° |
| 2026-05-08 22:21 | 51.87720 | 19.24461 | 31141 ft | 500 kts | 90° |
| 2026-05-08 22:21 | 51.87699 | 19.30111 | 29851 ft | 503 kts | 90° |
| 2026-05-08 22:21 | 51.87675 | 19.35775 | 28550 ft | 503 kts | 90° |
| 2026-05-08 22:21 | 51.87647 | 19.41418 | 27458 ft | 501 kts | 90° |
| 2026-05-08 22:22 | 51.87615 | 19.46998 | 26788 ft | 490 kts | 90° |
| 2026-05-08 22:22 | 51.87582 | 19.52481 | 25963 ft | 485 kts | 90° |
| 2026-05-08 22:22 | 51.87544 | 19.57923 | 25186 ft | 480 kts | 91° |
| 2026-05-08 22:22 | 51.87504 | 19.63230 | 24422 ft | 475 kts | 91° |
| 2026-05-08 22:23 | 51.87464 | 19.68632 | 23640 ft | 471 kts | 90° |
| 2026-05-08 22:23 | 51.87426 | 19.73902 | 22849 ft | 467 kts | 91° |
| 2026-05-08 22:23 | 51.87386 | 19.79050 | 22168 ft | 460 kts | 91° |
| 2026-05-08 22:23 | 51.87341 | 19.84265 | 21487 ft | 455 kts | 91° |
| 2026-05-08 22:24 | 51.87292 | 19.89289 | 20838 ft | 450 kts | 91° |
| 2026-05-08 22:24 | 51.87241 | 19.94320 | 20224 ft | 445 kts | 91° |
| 2026-05-08 22:24 | 51.87188 | 19.99298 | 19632 ft | 440 kts | 91° |
| 2026-05-08 22:24 | 51.87136 | 20.04225 | 19052 ft | 436 kts | 91° |
| 2026-05-08 22:25 | 51.87083 | 20.09109 | 18504 ft | 432 kts | 91° |
| 2026-05-08 22:25 | 51.87030 | 20.13945 | 17906 ft | 428 kts | 91° |
| 2026-05-08 22:25 | 51.86975 | 20.18721 | 17359 ft | 423 kts | 91° |
| 2026-05-08 22:25 | 51.86919 | 20.23458 | 16802 ft | 418 kts | 91° |
| 2026-05-08 22:26 | 51.86859 | 20.28142 | 16239 ft | 415 kts | 91° |
| 2026-05-08 22:26 | 51.86800 | 20.32748 | 15669 ft | 412 kts | 91° |
| 2026-05-08 22:26 | 51.86739 | 20.37358 | 15091 ft | 409 kts | 91° |
| 2026-05-08 22:26 | 51.86675 | 20.41954 | 14487 ft | 407 kts | 91° |
| 2026-05-08 22:27 | 51.86610 | 20.46530 | 13875 ft | 406 kts | 91° |
| 2026-05-08 22:27 | 51.86545 | 20.51084 | 13206 ft | 403 kts | 91° |
| 2026-05-08 22:27 | 51.86478 | 20.55587 | 12578 ft | 399 kts | 91° |
| 2026-05-08 22:27 | 51.86410 | 20.60054 | 11946 ft | 395 kts | 91° |
| 2026-05-08 22:28 | 51.86344 | 20.64485 | 11302 ft | 392 kts | 91° |
| 2026-05-08 22:28 | 51.86277 | 20.68846 | 10879 ft | 382 kts | 91° |
| 2026-05-08 22:28 | 51.86209 | 20.73053 | 10753 ft | 365 kts | 91° |
| 2026-05-08 22:28 | 51.86141 | 20.77055 | 10631 ft | 349 kts | 91° |
| 2026-05-08 22:29 | 51.86075 | 20.80902 | 10505 ft | 335 kts | 91° |
| 2026-05-08 22:29 | 51.86195 | 20.84578 | 10386 ft | 321 kts | 79° |
| 2026-05-08 22:29 | 51.86627 | 20.88060 | 10271 ft | 309 kts | 77° |
| 2026-05-08 22:29 | 51.87076 | 20.91414 | 10055 ft | 302 kts | 77° |
| 2026-05-08 22:30 | 51.87520 | 20.94726 | 9674 ft | 300 kts | 77° |
| 2026-05-08 22:30 | 51.87961 | 20.98019 | 9294 ft | 299 kts | 77° |
| 2026-05-08 22:30 | 51.88399 | 21.01282 | 8911 ft | 297 kts | 77° |
| 2026-05-08 22:30 | 51.88838 | 21.04548 | 8464 ft | 297 kts | 77° |
| 2026-05-08 22:31 | 51.89278 | 21.07826 | 7950 ft | 299 kts | 77° |
| 2026-05-08 22:31 | 51.89723 | 21.11128 | 7450 ft | 301 kts | 77° |
| 2026-05-08 22:31 | 51.90315 | 21.14316 | 6952 ft | 291 kts | 60° |
| 2026-05-08 22:31 | 51.91577 | 21.16737 | 6462 ft | 276 kts | 32° |
| 2026-05-08 22:32 | 51.93288 | 21.17874 | 5934 ft | 260 kts | 3° |
| 2026-05-08 22:32 | 51.95023 | 21.17594 | 5413 ft | 247 kts | 340° |
| 2026-05-08 22:32 | 51.96551 | 21.16470 | 4842 ft | 238 kts | 326° |
| 2026-05-08 22:32 | 51.97764 | 21.14721 | 4273 ft | 231 kts | 309° |
| 2026-05-08 22:33 | 51.98786 | 21.12731 | 3730 ft | 227 kts | 308° |
| 2026-05-08 22:33 | 51.99953 | 21.11081 | 3216 ft | 223 kts | 330° |
| 2026-05-08 22:33 | 52.01295 | 21.09964 | 3007 ft | 207 kts | 332° |
| 2026-05-08 22:33 | 52.02508 | 21.08948 | 3028 ft | 188 kts | 330° |
| 2026-05-08 22:34 | 52.03606 | 21.08004 | 3013 ft | 168 kts | 330° |
| 2026-05-08 22:34 | 52.04584 | 21.07158 | 3002 ft | 154 kts | 330° |
| 2026-05-08 22:34 | 52.05500 | 21.06362 | 2933 ft | 147 kts | 330° |
| 2026-05-08 22:34 | 52.06396 | 21.05583 | 2601 ft | 147 kts | 330° |
| 2026-05-08 22:35 | 52.07284 | 21.04811 | 2312 ft | 142 kts | 331° |
| 2026-05-08 22:35 | 52.08132 | 21.04073 | 2090 ft | 136 kts | 332° |
| 2026-05-08 22:35 | 52.08959 | 21.03354 | 1891 ft | 134 kts | 332° |
| 2026-05-08 22:35 | 52.09773 | 21.02645 | 1712 ft | 132 kts | 332° |
| 2026-05-08 22:36 | 52.10582 | 21.01941 | 1511 ft | 131 kts | 332° |
| 2026-05-08 22:36 | 52.11382 | 21.01244 | 1337 ft | 130 kts | 332° |
| 2026-05-08 22:36 | 52.12181 | 21.00547 | 1149 ft | 130 kts | 332° |
| 2026-05-08 22:36 | 52.12976 | 20.99857 | 958 ft | 129 kts | 332° |
| 2026-05-08 22:37 | 52.13767 | 20.99172 | 793 ft | 129 kts | 332° |
| 2026-05-08 22:37 | 52.14550 | 20.98471 | 594 ft | 128 kts | 330° |
| 2026-05-08 22:37 | 52.15324 | 20.97794 | 401 ft | 127 kts | 332° |
| 2026-05-08 22:37 | 52.16041 | 20.97173 | 346 ft | 98 kts | 332° |
| 2026-05-08 22:38 | 52.16487 | 20.96787 | 347 ft | 48 kts | 332° |
| 2026-05-08 22:38 | 52.16663 | 20.96634 | 345 ft | 21 kts | 332° |
| 2026-05-08 22:38 | 52.16782 | 20.96544 | 347 ft | 18 kts | 345° |
| 2026-05-08 22:38 | 52.16899 | 20.96512 | 344 ft | 17 kts | 356° |
| 2026-05-08 22:39 | 52.16984 | 20.96512 | 346 ft | 8 kts | 1° |
| 2026-05-08 22:39 | 52.17030 | 20.96514 | 349 ft | 5 kts | 1° |
| 2026-05-08 22:39 | 52.17056 | 20.96520 | 348 ft | 2 kts | 14° |
| 2026-05-08 22:39 | 52.17063 | 20.96524 | 348 ft | 1 kts | 19° |
| 2026-05-08 22:40 | 52.17081 | 20.96548 | 348 ft | 6 kts | 49° |
| 2026-05-08 22:40 | 52.17099 | 20.96599 | 352 ft | 7 kts | 60° |
| 2026-05-08 22:40 | 52.17129 | 20.96689 | 353 ft | 10 kts | 60° |
| 2026-05-08 22:40 | 52.17159 | 20.96777 | 357 ft | 8 kts | 62° |
| 2026-05-08 22:41 | 52.17145 | 20.96846 | 356 ft | 6 kts | 144° |
| 2026-05-08 22:41 | 52.17117 | 20.96890 | 350 ft | 5 kts | 106° |
| 2026-05-08 22:41 | 52.17126 | 20.96942 | 353 ft | 6 kts | 62° |
| 2026-05-08 22:41 | 52.17144 | 20.96994 | 350 ft | 3 kts | 61° |
| 2026-05-08 22:42 | 52.17147 | 20.97002 | 350 ft | 0 kts | 60° |